createdAt,value
2023-02-02T00:02:01.044Z,3.19
2023-02-02T00:04:33.435Z,3.19
2023-02-02T00:07:01.359Z,3.23
2023-02-02T00:09:30.143Z,3.30
2023-02-02T00:11:57.251Z,3.28
2023-02-02T00:14:24.722Z,3.33
2023-02-02T00:16:53.298Z,3.39
2023-02-02T00:19:22.446Z,3.49
2023-02-02T00:21:49.123Z,3.46
2023-02-02T00:24:20.150Z,3.42
2023-02-02T00:26:49.644Z,3.43
2023-02-02T00:29:23.864Z,3.33
2023-02-02T00:31:51.094Z,3.38
2023-02-02T00:34:18.244Z,3.40
2023-02-02T00:36:45.231Z,3.40
2023-02-02T00:39:15.831Z,3.44
2023-02-02T00:41:42.229Z,3.53
2023-02-02T00:44:27.059Z,3.64
2023-02-02T00:46:53.414Z,3.72
2023-02-02T00:49:19.833Z,3.67
2023-02-02T00:51:46.214Z,3.81
2023-02-02T00:54:14.243Z,3.87
2023-02-02T00:56:41.515Z,3.87
2023-02-02T00:59:08.302Z,3.88
2023-02-02T01:01:35.013Z,3.94
2023-02-02T01:04:01.581Z,4.00
2023-02-02T01:06:28.057Z,4.01
2023-02-02T01:08:54.561Z,4.03
2023-02-02T01:11:21.221Z,4.01
2023-02-02T01:13:47.847Z,3.99
2023-02-02T01:16:14.361Z,4.01
2023-02-02T01:18:40.731Z,4.00
2023-02-02T01:21:10.512Z,4.13
2023-02-02T01:23:38.290Z,4.16
2023-02-02T01:26:08.955Z,4.18
2023-02-02T01:28:36.021Z,4.23
2023-02-02T01:31:12.438Z,4.27
2023-02-02T01:33:39.651Z,4.30
2023-02-02T01:36:09.946Z,4.41
2023-02-02T01:38:36.923Z,4.46
2023-02-02T01:41:04.630Z,4.45
2023-02-02T01:43:43.895Z,4.47
2023-02-02T01:46:18.457Z,4.54
2023-02-02T01:48:51.137Z,4.49
2023-02-02T01:51:20.931Z,4.47
2023-02-02T01:53:49.473Z,4.51
2023-02-02T01:56:24.593Z,4.46
2023-02-02T01:58:51.232Z,4.49
2023-02-02T02:01:17.790Z,4.53
2023-02-02T02:03:44.263Z,4.52
2023-02-02T02:06:15.494Z,4.54
2023-02-02T02:09:00.526Z,4.53
2023-02-02T02:11:27.003Z,4.48
2023-02-02T02:14:19.363Z,4.56
2023-02-02T02:16:51.278Z,4.48
2023-02-02T02:20:16.060Z,4.44
2023-02-02T02:23:35.030Z,4.51
2023-02-02T02:26:50.802Z,4.47
2023-02-02T02:29:41.785Z,4.43
2023-02-02T02:32:18.105Z,4.42
2023-02-02T02:35:12.272Z,4.51
2023-02-02T02:37:41.574Z,4.41
2023-02-02T02:40:17.418Z,4.39
2023-02-02T02:42:49.579Z,4.34
2023-02-02T02:45:17.802Z,4.47
2023-02-02T02:47:44.789Z,4.45
2023-02-02T02:50:12.009Z,4.54
2023-02-02T02:52:39.975Z,4.56
2023-02-02T02:55:07.993Z,4.56
2023-02-02T02:57:49.321Z,4.75
2023-02-02T03:00:31.648Z,4.76
2023-02-02T03:03:19.754Z,4.82
2023-02-02T03:05:58.531Z,4.88
2023-02-02T03:08:33.737Z,4.88
2023-02-02T03:11:02.421Z,4.90
2023-02-02T03:13:29.463Z,5.03
2023-02-02T03:15:56.509Z,5.06
2023-02-02T03:18:27.258Z,5.16
2023-02-02T03:20:53.633Z,5.12
2023-02-02T03:23:20.193Z,5.21
2023-02-02T03:25:46.660Z,5.29
2023-02-02T03:28:13.202Z,5.35
2023-02-02T03:30:42.011Z,5.30
2023-02-02T03:33:10.001Z,5.34
2023-02-02T03:35:36.423Z,5.35
2023-02-02T03:38:03.752Z,5.40
2023-02-02T03:40:30.170Z,5.46
2023-02-02T03:42:57.094Z,5.50
2023-02-02T03:45:26.792Z,5.67
2023-02-02T03:47:53.275Z,5.69
2023-02-02T03:50:19.805Z,5.60
2023-02-02T03:52:46.308Z,5.60
2023-02-02T03:55:12.732Z,5.69
2023-02-02T03:57:39.107Z,5.75
2023-02-02T04:00:06.219Z,5.77
2023-02-02T04:02:32.598Z,5.80
2023-02-02T04:04:59.008Z,5.85
2023-02-02T04:07:25.406Z,5.91
2023-02-02T04:09:51.754Z,5.93
2023-02-02T04:12:18.114Z,5.90
2023-02-02T04:14:44.542Z,5.96
2023-02-02T04:17:11.538Z,6.01
2023-02-02T04:19:38.349Z,6.01
2023-02-02T04:22:04.827Z,5.97
2023-02-02T04:24:31.245Z,5.96
2023-02-02T04:26:57.626Z,5.98
2023-02-02T04:29:25.134Z,5.86
2023-02-02T04:31:51.703Z,5.89
2023-02-02T04:34:18.223Z,5.87
2023-02-02T04:36:44.748Z,5.86
2023-02-02T04:39:11.988Z,5.90
2023-02-02T04:41:38.368Z,5.90
2023-02-02T04:44:06.740Z,5.83
2023-02-02T04:46:33.170Z,5.75
2023-02-02T04:48:59.538Z,5.76
2023-02-02T04:51:25.924Z,5.70
2023-02-02T04:53:52.279Z,5.70
2023-02-02T04:56:18.939Z,5.67
2023-02-02T04:58:46.175Z,5.58
2023-02-02T05:01:18.940Z,5.55
2023-02-02T05:03:45.916Z,5.64
2023-02-02T05:06:15.538Z,5.50
2023-02-02T05:08:43.312Z,5.54
2023-02-02T05:11:11.260Z,5.57
2023-02-02T05:13:37.735Z,5.56
2023-02-02T05:16:04.423Z,5.52
2023-02-02T05:18:31.560Z,5.55
2023-02-02T05:21:02.878Z,5.50
2023-02-02T05:23:30.353Z,5.43
2023-02-02T05:25:57.157Z,5.48
2023-02-02T05:28:24.052Z,5.45
2023-02-02T05:30:51.141Z,5.43
2023-02-02T05:33:20.659Z,5.35
2023-02-02T05:35:48.272Z,5.36
2023-02-02T05:38:15.755Z,5.35
2023-02-02T05:40:42.197Z,5.34
2023-02-02T05:43:08.593Z,5.30
2023-02-02T05:45:34.993Z,5.34
2023-02-02T05:48:01.379Z,5.34
2023-02-02T05:50:27.772Z,5.36
2023-02-02T05:52:54.306Z,5.30
2023-02-02T05:55:20.648Z,5.31
2023-02-02T05:57:47.033Z,5.29
2023-02-02T06:00:14.020Z,5.29
2023-02-02T06:02:40.434Z,5.32
2023-02-02T06:05:07.701Z,5.32
2023-02-02T06:07:34.102Z,5.39
2023-02-02T06:10:00.506Z,5.36
2023-02-02T06:12:26.895Z,5.32
2023-02-02T06:14:53.250Z,5.27
2023-02-02T06:17:19.623Z,5.29
2023-02-02T06:19:46.002Z,5.34
2023-02-02T06:22:12.451Z,5.41
2023-02-02T06:24:38.837Z,5.29
2023-02-02T06:27:05.508Z,5.27
2023-02-02T06:29:31.849Z,5.40
2023-02-02T06:31:58.475Z,5.43
2023-02-02T06:34:24.929Z,5.38
2023-02-02T06:36:51.306Z,5.40
2023-02-02T06:39:17.725Z,5.34
2023-02-02T06:41:46.539Z,5.35
2023-02-02T06:44:15.257Z,5.33
2023-02-02T06:46:42.520Z,5.43
2023-02-02T06:49:11.879Z,5.34
2023-02-02T06:51:38.327Z,5.42
2023-02-02T06:54:04.855Z,5.25
2023-02-02T06:56:31.240Z,5.30
2023-02-02T06:58:57.671Z,5.31
2023-02-02T07:01:24.152Z,5.31
2023-02-02T07:03:51.253Z,5.28
2023-02-02T07:06:23.910Z,5.35
2023-02-02T07:09:01.815Z,5.32
2023-02-02T07:11:31.554Z,5.32
2023-02-02T07:13:58.966Z,5.34
2023-02-02T07:16:25.447Z,5.38
2023-02-02T07:18:51.896Z,5.39
2023-02-02T07:21:23.980Z,5.38
2023-02-02T07:23:51.193Z,5.38
2023-02-02T07:26:18.811Z,5.46
2023-02-02T07:28:46.100Z,5.54
2023-02-02T07:31:18.165Z,5.48
2023-02-02T07:33:45.775Z,5.49
2023-02-02T07:51:40.410Z,4.99
2023-02-02T07:54:09.466Z,4.89
2023-02-02T07:56:37.891Z,5.04
2023-02-02T07:59:04.323Z,4.96
2023-02-02T08:01:30.770Z,4.96
2023-02-02T08:04:00.489Z,5.01
2023-02-02T08:06:29.797Z,4.86
2023-02-02T08:08:56.390Z,5.04
2023-02-02T08:11:24.940Z,5.08
2023-02-02T08:13:54.440Z,5.17
2023-02-02T08:16:21.884Z,5.01
2023-02-02T08:18:49.150Z,5.06
2023-02-02T08:21:16.711Z,5.20
2023-02-02T08:23:43.478Z,5.25
2023-02-02T08:26:22.245Z,5.32
2023-02-02T08:28:53.424Z,5.34
2023-02-02T08:31:43.125Z,5.46
2023-02-02T08:34:10.164Z,5.48
2023-02-02T08:36:37.022Z,5.47
2023-02-02T08:39:08.680Z,5.52
2023-02-02T08:41:36.818Z,5.39
2023-02-02T08:44:11.840Z,5.38
2023-02-02T08:46:38.371Z,5.36
2023-02-02T08:49:04.845Z,5.58
2023-02-02T08:51:31.285Z,5.54
2023-02-02T08:53:57.848Z,5.62
2023-02-02T08:56:24.540Z,5.75
2023-02-02T08:58:53.660Z,5.56
2023-02-02T09:01:25.897Z,5.72
2023-02-02T09:03:56.888Z,5.75
2023-02-02T09:06:28.590Z,5.90
2023-02-02T09:08:55.052Z,5.94
2023-02-02T09:11:21.465Z,6.01
2023-02-02T09:13:49.502Z,5.98
2023-02-02T09:16:18.306Z,6.12
2023-02-02T09:18:45.487Z,6.22
2023-02-02T09:21:14.623Z,6.20
2023-02-02T09:23:42.880Z,6.21
2023-02-02T09:26:10.692Z,6.12
2023-02-02T09:28:39.372Z,6.09
2023-02-02T09:31:06.581Z,6.36
2023-02-02T09:33:33.277Z,6.50
2023-02-02T09:36:08.119Z,6.58
2023-02-02T09:38:34.902Z,6.57
2023-02-02T09:41:03.171Z,6.64
2023-02-02T09:44:11.495Z,6.61
2023-02-02T09:46:56.641Z,6.73
2023-02-02T09:49:53.539Z,6.74
2023-02-02T09:52:29.994Z,6.69
2023-02-02T09:55:03.275Z,6.57
2023-02-02T09:57:37.835Z,6.70
2023-02-02T10:00:06.344Z,6.58
2023-02-02T10:02:45.800Z,6.72
2023-02-02T10:05:18.341Z,6.70
2023-02-02T10:07:48.770Z,6.74
2023-02-02T10:10:21.020Z,6.80
2023-02-02T10:13:05.945Z,6.79
2023-02-02T10:15:54.639Z,6.90
2023-02-02T10:18:34.750Z,6.91
2023-02-02T10:21:04.741Z,7.02
2023-02-02T10:23:37.351Z,7.00
2023-02-02T10:26:26.316Z,7.09
2023-02-02T10:29:28.067Z,7.14
2023-02-02T10:32:23.557Z,7.16
2023-02-02T10:35:12.680Z,7.32
2023-02-02T10:38:12.495Z,7.12
2023-02-02T10:40:58.193Z,7.16
2023-02-02T10:43:45.912Z,7.32
2023-02-02T10:46:22.362Z,7.30
2023-02-02T10:48:50.079Z,7.20
2023-02-02T10:51:29.713Z,7.40
2023-02-02T10:54:00.123Z,7.43
2023-02-02T10:56:43.013Z,7.04
2023-02-02T10:59:21.945Z,7.30
2023-02-02T11:01:48.717Z,7.38
2023-02-02T11:04:33.919Z,7.14
2023-02-02T11:07:01.620Z,7.04
2023-02-02T11:09:32.455Z,7.30
2023-02-02T11:12:13.689Z,7.19
2023-02-02T11:14:46.257Z,7.26
2023-02-02T11:17:20.889Z,7.16
2023-02-02T11:19:49.759Z,7.30
2023-02-02T11:22:30.672Z,7.19
2023-02-02T11:25:00.254Z,7.24
2023-02-02T11:27:33.258Z,7.22
2023-02-02T11:30:10.098Z,7.03
2023-02-02T11:32:37.807Z,7.33
2023-02-02T11:35:04.196Z,7.21
2023-02-02T11:37:31.907Z,7.20
2023-02-02T11:40:29.265Z,7.13
2023-02-02T11:42:58.369Z,7.14
2023-02-02T11:45:37.189Z,7.19
2023-02-02T11:48:22.189Z,7.18
2023-02-02T11:50:51.886Z,6.89
2023-02-02T11:53:33.822Z,7.04
2023-02-02T11:56:05.721Z,7.17
2023-02-02T11:58:52.956Z,7.12
2023-02-02T12:01:27.442Z,7.12
2023-02-02T12:03:57.049Z,7.00
2023-02-02T12:06:24.991Z,7.16
2023-02-02T12:08:56.016Z,7.15
2023-02-02T13:27:02.924Z,7.41
2023-02-02T13:29:48.221Z,7.14
2023-02-02T13:32:27.139Z,7.36
2023-02-02T13:35:16.063Z,7.20
2023-02-02T13:37:42.396Z,7.51
2023-02-02T13:40:24.591Z,7.43
2023-02-02T13:43:18.400Z,7.21
2023-02-02T13:46:06.817Z,7.36
2023-02-02T13:48:50.584Z,7.38
2023-02-02T13:51:19.973Z,7.44
2023-02-02T13:54:08.304Z,7.45
2023-02-02T13:56:45.933Z,7.37
2023-02-02T13:59:54.081Z,7.31
2023-02-02T14:02:29.534Z,7.37
2023-02-02T14:04:59.624Z,7.23
2023-02-02T14:07:47.177Z,7.25
2023-02-02T14:10:28.836Z,7.36
2023-02-02T14:12:56.269Z,7.28
2023-02-02T14:15:44.356Z,7.24
2023-02-02T14:18:10.832Z,7.17
2023-02-02T14:20:43.805Z,6.94
2023-02-02T14:23:52.386Z,7.25
2023-02-02T14:26:40.826Z,7.07
2023-02-02T14:29:29.280Z,7.20
2023-02-02T14:32:19.300Z,7.20
2023-02-02T14:34:45.742Z,7.13
2023-02-02T14:37:21.274Z,7.10
2023-02-02T14:40:06.193Z,6.95
2023-02-02T14:43:22.087Z,7.01
2023-02-02T14:46:10.785Z,6.97
2023-02-02T14:48:41.115Z,6.89
2023-02-02T14:51:18.082Z,6.98
2023-02-02T14:53:56.226Z,6.73
2023-02-02T14:56:38.972Z,6.77
2023-02-02T14:59:07.584Z,6.81
2023-02-02T15:01:37.332Z,6.66
2023-02-02T15:04:22.238Z,6.76
2023-02-02T15:06:51.083Z,6.74
2023-02-02T15:09:20.656Z,6.77
2023-02-02T15:12:01.049Z,6.76
2023-02-02T15:14:45.464Z,6.59
2023-02-02T15:17:33.884Z,6.79
2023-02-02T15:20:13.375Z,6.78
2023-02-02T15:23:00.929Z,6.76
2023-02-02T15:25:51.658Z,6.74
2023-02-02T15:28:21.466Z,6.79
2023-02-02T15:30:56.562Z,6.64
2023-02-02T15:33:37.280Z,6.73
2023-02-02T15:36:25.671Z,6.67
2023-02-02T15:39:02.882Z,6.45
2023-02-02T15:41:41.643Z,6.61
2023-02-02T15:44:28.078Z,6.64
2023-02-02T15:46:57.698Z,6.62
2023-02-02T15:49:34.891Z,6.59
2023-02-02T15:52:12.835Z,6.76
2023-02-02T15:54:49.701Z,6.72
2023-02-02T15:57:44.781Z,6.78
2023-02-02T16:00:31.062Z,6.80
2023-02-02T16:03:11.350Z,6.83
2023-02-02T16:05:37.656Z,6.82
2023-02-02T16:08:15.359Z,6.68
2023-02-02T16:10:41.930Z,6.90
2023-02-02T16:13:22.401Z,6.79
2023-02-02T16:15:59.037Z,6.99
2023-02-02T16:18:25.576Z,7.03
2023-02-02T16:20:54.125Z,7.01
2023-02-02T16:23:28.759Z,7.13
2023-02-02T16:25:59.782Z,7.16
2023-02-02T16:28:26.856Z,7.13
2023-02-02T16:30:53.736Z,7.20
2023-02-02T16:33:36.067Z,7.20
2023-02-02T16:36:25.391Z,7.21
2023-02-02T16:38:54.150Z,7.15
2023-02-02T16:41:36.981Z,7.21
2023-02-02T16:44:40.830Z,7.28
2023-02-02T16:47:28.066Z,7.12
2023-02-02T16:50:09.897Z,7.32
2023-02-02T16:52:57.139Z,7.33
2023-02-02T16:55:24.182Z,7.17
2023-02-02T16:57:51.849Z,7.22
2023-02-02T17:00:28.632Z,7.38
2023-02-02T17:03:04.454Z,7.36
2023-02-02T17:05:47.767Z,7.35
2023-02-02T17:08:14.255Z,7.18
2023-02-02T17:10:43.651Z,7.36
2023-02-02T17:13:36.597Z,7.37
2023-02-02T17:16:03.898Z,7.33
2023-02-02T17:18:30.415Z,7.29
2023-02-02T17:21:03.630Z,7.26
2023-02-02T17:23:32.108Z,7.49
2023-02-02T17:25:59.063Z,7.44
2023-02-02T17:28:27.093Z,7.48
2023-02-02T17:31:00.214Z,7.43
2023-02-02T17:33:27.527Z,7.54
2023-02-02T17:35:56.231Z,7.54
2023-02-02T17:38:25.076Z,7.55
2023-02-02T17:40:52.739Z,7.55
2023-02-02T17:43:19.179Z,7.50
2023-02-02T17:45:45.628Z,7.51
2023-02-02T17:48:13.380Z,7.62
2023-02-02T17:50:41.461Z,7.50
2023-02-02T17:53:16.241Z,7.64
2023-02-02T17:55:44.005Z,7.53
2023-02-02T19:03:52.153Z,7.88
2023-02-02T19:06:38.195Z,7.84
2023-02-02T19:09:05.790Z,7.86
2023-02-02T19:11:35.443Z,7.88
2023-02-02T19:14:01.820Z,7.90
2023-02-02T19:16:32.925Z,7.86
2023-02-02T19:19:11.413Z,7.86
2023-02-02T19:21:37.881Z,7.85
2023-02-02T19:24:10.903Z,7.49
2023-02-02T19:26:41.085Z,7.41
2023-02-02T19:29:20.027Z,7.61
2023-02-02T19:31:52.184Z,7.70
2023-02-02T19:34:21.494Z,7.57
2023-02-02T19:36:50.119Z,7.49
2023-02-02T19:39:30.752Z,7.74
2023-02-02T19:42:00.340Z,7.82
2023-02-02T19:44:32.215Z,7.77
2023-02-02T19:46:59.908Z,7.84
2023-02-02T19:49:30.433Z,7.82
2023-02-02T19:51:58.361Z,7.55
2023-02-02T19:54:34.881Z,7.77
2023-02-02T19:57:13.449Z,7.78
2023-02-02T19:59:41.999Z,7.83
2023-02-02T20:02:27.001Z,7.78
2023-02-02T20:05:05.947Z,7.68
2023-02-02T20:07:32.467Z,7.74
2023-02-02T20:10:13.876Z,7.76
2023-02-02T20:12:40.303Z,7.70
2023-02-02T20:15:31.263Z,7.80
2023-02-02T20:17:59.878Z,7.79
2023-02-02T20:20:29.642Z,7.74
2023-02-02T20:22:57.214Z,7.79
2023-02-02T20:25:23.764Z,7.77
2023-02-02T20:27:50.558Z,7.63
2023-02-02T20:30:23.647Z,7.89
2023-02-02T20:32:56.520Z,7.82
2023-02-02T20:35:38.507Z,7.75
2023-02-02T20:38:27.755Z,7.84
2023-02-02T20:40:55.373Z,7.88
2023-02-02T20:43:21.856Z,7.84
2023-02-02T20:45:48.810Z,7.96
2023-02-02T20:48:15.353Z,7.95
2023-02-02T20:50:42.445Z,7.80
2023-02-02T20:53:09.035Z,7.68
2023-02-02T20:55:36.794Z,7.83
2023-02-02T20:58:04.381Z,7.77
2023-02-02T21:00:30.846Z,7.92
2023-02-02T21:02:57.643Z,7.92
2023-02-02T21:05:24.725Z,7.74
2023-02-02T21:07:54.888Z,7.77
2023-02-02T21:10:25.220Z,7.76
2023-02-02T21:12:52.144Z,7.94
2023-02-02T21:15:19.083Z,7.87
2023-02-02T21:17:45.528Z,7.97
2023-02-02T21:20:13.296Z,7.89
2023-02-02T21:22:39.849Z,7.86
2023-02-02T21:25:06.643Z,8.04
2023-02-02T21:27:33.022Z,7.89
2023-02-02T21:29:59.448Z,8.09
2023-02-02T21:32:25.835Z,8.07
2023-02-02T21:34:52.215Z,8.09
2023-02-02T21:37:18.619Z,8.11
2023-02-02T21:39:49.505Z,8.15
2023-02-02T21:42:19.233Z,8.09
2023-02-02T21:44:56.247Z,8.11
2023-02-02T21:47:34.670Z,8.24
2023-02-02T21:50:13.836Z,8.15
2023-02-02T21:52:40.280Z,8.18
2023-02-02T21:55:18.853Z,8.21
2023-02-02T21:57:45.341Z,8.22
2023-02-02T22:00:30.840Z,8.24
2023-02-02T22:02:58.948Z,8.24
2023-02-02T22:05:36.761Z,8.22
2023-02-02T22:08:23.713Z,8.20
2023-02-02T22:10:50.112Z,8.24
2023-02-02T22:13:19.090Z,8.17
2023-02-02T22:15:51.058Z,8.28
2023-02-02T22:18:20.643Z,8.07
2023-02-02T22:20:50.361Z,8.19
2023-02-02T22:23:19.480Z,8.08
2023-02-02T22:25:48.084Z,8.25
2023-02-02T22:28:26.045Z,8.33
2023-02-02T22:30:54.015Z,8.27
2023-02-02T22:33:21.915Z,8.34
2023-02-02T22:35:48.378Z,8.36
2023-02-02T22:38:20.150Z,8.31
2023-02-02T22:40:48.038Z,8.31
2023-02-02T22:43:16.535Z,8.40
2023-02-02T22:45:44.092Z,8.41
2023-02-02T22:48:12.038Z,8.45
2023-02-02T22:50:38.914Z,8.39
2023-02-02T22:53:05.622Z,8.41
2023-02-02T22:55:32.904Z,8.27
2023-02-02T22:57:59.459Z,8.37
2023-02-02T23:00:28.744Z,8.41
2023-02-02T23:02:55.937Z,8.29
2023-02-02T23:05:23.703Z,8.18
2023-02-02T23:07:50.500Z,8.32
2023-02-02T23:10:19.257Z,8.38
2023-02-02T23:12:46.656Z,8.34
2023-02-02T23:15:14.477Z,8.44
2023-02-02T23:17:40.977Z,8.38
2023-02-02T23:20:10.381Z,8.50
2023-02-02T23:22:36.782Z,8.44
2023-02-02T23:25:03.417Z,8.42
2023-02-02T23:27:29.851Z,8.46
2023-02-02T23:29:56.229Z,8.51
2023-02-02T23:32:22.671Z,8.46
2023-02-02T23:34:49.064Z,8.53
2023-02-02T23:37:15.439Z,8.42
2023-02-02T23:39:41.831Z,8.43
2023-02-02T23:42:08.206Z,8.47
2023-02-02T23:44:34.639Z,8.41
2023-02-02T23:47:02.153Z,8.26
2023-02-02T23:49:30.367Z,8.29
2023-02-02T23:51:57.016Z,8.25
2023-02-02T23:54:23.562Z,8.41
2023-02-02T23:56:50.331Z,8.48
2023-02-02T23:59:16.739Z,8.47
